sensor_id;sensor_type;location;lat;lon;timestamp;temperature;humidity
38726;DHT22;24474;48.906;8.808;2022-08-19T00:00:39;19.60;99.90
38726;DHT22;24474;48.906;8.808;2022-08-19T00:03:05;19.50;99.90
38726;DHT22;24474;48.906;8.808;2022-08-19T00:05:32;19.50;99.90
38726;DHT22;24474;48.906;8.808;2022-08-19T00:07:59;19.50;99.90
38726;DHT22;24474;48.906;8.808;2022-08-19T00:10:27;19.50;99.90
38726;DHT22;24474;48.906;8.808;2022-08-19T00:12:55;19.50;99.90
38726;DHT22;24474;48.906;8.808;2022-08-19T00:15:21;19.50;99.90
38726;DHT22;24474;48.906;8.808;2022-08-19T00:17:49;19.50;99.90
38726;DHT22;24474;48.906;8.808;2022-08-19T00:20:18;19.50;99.90
38726;DHT22;24474;48.906;8.808;2022-08-19T00:22:47;19.50;99.90
38726;DHT22;24474;48.906;8.808;2022-08-19T00:25:13;19.60;99.90
38726;DHT22;24474;48.906;8.808;2022-08-19T00:27:40;19.60;99.90
38726;DHT22;24474;48.906;8.808;2022-08-19T00:30:07;19.60;99.90
38726;DHT22;24474;48.906;8.808;2022-08-19T00:32:33;19.60;99.90
38726;DHT22;24474;48.906;8.808;2022-08-19T00:35:01;19.50;99.90
38726;DHT22;24474;48.906;8.808;2022-08-19T00:37:27;19.50;99.90
38726;DHT22;24474;48.906;8.808;2022-08-19T00:39:55;19.50;99.90
38726;DHT22;24474;48.906;8.808;2022-08-19T00:42:22;19.50;99.90
38726;DHT22;24474;48.906;8.808;2022-08-19T00:44:48;19.40;99.90
38726;DHT22;24474;48.906;8.808;2022-08-19T00:47:14;19.40;99.90
38726;DHT22;24474;48.906;8.808;2022-08-19T00:49:53;19.40;99.90
38726;DHT22;24474;48.906;8.808;2022-08-19T00:52:32;19.40;99.90
38726;DHT22;24474;48.906;8.808;2022-08-19T00:55:01;19.40;99.90
38726;DHT22;24474;48.906;8.808;2022-08-19T00:57:32;19.40;99.90
38726;DHT22;24474;48.906;8.808;2022-08-19T01:03:13;19.40;99.90
38726;DHT22;24474;48.906;8.808;2022-08-19T01:05:41;19.40;99.90
38726;DHT22;24474;48.906;8.808;2022-08-19T01:08:08;19.40;99.90
38726;DHT22;24474;48.906;8.808;2022-08-19T01:10:39;19.40;99.90
38726;DHT22;24474;48.906;8.808;2022-08-19T01:13:05;19.40;99.90
38726;DHT22;24474;48.906;8.808;2022-08-19T01:15:35;19.50;99.90
38726;DHT22;24474;48.906;8.808;2022-08-19T01:18:09;19.40;99.90
38726;DHT22;24474;48.906;8.808;2022-08-19T01:20:37;19.40;99.90
38726;DHT22;24474;48.906;8.808;2022-08-19T01:23:05;19.40;99.90
38726;DHT22;24474;48.906;8.808;2022-08-19T01:25:52;19.40;99.90
38726;DHT22;24474;48.906;8.808;2022-08-19T01:28:26;19.40;99.90
38726;DHT22;24474;48.906;8.808;2022-08-19T01:30:52;19.40;99.90
38726;DHT22;24474;48.906;8.808;2022-08-19T01:33:21;19.40;99.90
38726;DHT22;24474;48.906;8.808;2022-08-19T01:35:47;19.40;99.90
38726;DHT22;24474;48.906;8.808;2022-08-19T01:38:26;19.40;99.90
38726;DHT22;24474;48.906;8.808;2022-08-19T01:40:52;19.40;99.90
38726;DHT22;24474;48.906;8.808;2022-08-19T01:43:19;19.30;99.90
38726;DHT22;24474;48.906;8.808;2022-08-19T01:45:46;19.30;99.90
38726;DHT22;24474;48.906;8.808;2022-08-19T01:48:12;19.30;99.90
38726;DHT22;24474;48.906;8.808;2022-08-19T01:50:39;19.30;99.90
38726;DHT22;24474;48.906;8.808;2022-08-19T01:53:09;19.30;99.90
38726;DHT22;24474;48.906;8.808;2022-08-19T01:55:37;19.30;99.90
38726;DHT22;24474;48.906;8.808;2022-08-19T01:58:05;19.30;99.90
38726;DHT22;24474;48.906;8.808;2022-08-19T02:00:34;19.30;99.90
38726;DHT22;24474;48.906;8.808;2022-08-19T02:03:00;19.30;99.90
38726;DHT22;24474;48.906;8.808;2022-08-19T02:05:31;19.30;99.90
38726;DHT22;24474;48.906;8.808;2022-08-19T02:07:59;19.30;99.90
38726;DHT22;24474;48.906;8.808;2022-08-19T02:10:25;19.30;99.90
38726;DHT22;24474;48.906;8.808;2022-08-19T02:12:51;19.30;99.90
38726;DHT22;24474;48.906;8.808;2022-08-19T02:15:19;19.30;99.90
38726;DHT22;24474;48.906;8.808;2022-08-19T02:17:46;19.30;99.90
38726;DHT22;24474;48.906;8.808;2022-08-19T02:20:17;19.30;99.90
38726;DHT22;24474;48.906;8.808;2022-08-19T02:22:43;19.30;99.90
38726;DHT22;24474;48.906;8.808;2022-08-19T02:25:13;19.30;99.90
38726;DHT22;24474;48.906;8.808;2022-08-19T02:27:41;19.20;99.90
38726;DHT22;24474;48.906;8.808;2022-08-19T02:30:11;19.20;99.90
38726;DHT22;24474;48.906;8.808;2022-08-19T02:32:40;19.20;99.90
38726;DHT22;24474;48.906;8.808;2022-08-19T02:35:09;19.20;99.90
38726;DHT22;24474;48.906;8.808;2022-08-19T02:37:38;19.20;99.90
38726;DHT22;24474;48.906;8.808;2022-08-19T02:40:23;19.20;99.90
38726;DHT22;24474;48.906;8.808;2022-08-19T02:42:57;19.20;99.90
38726;DHT22;24474;48.906;8.808;2022-08-19T02:45:26;19.20;99.90
38726;DHT22;24474;48.906;8.808;2022-08-19T02:47:53;19.20;99.90
38726;DHT22;24474;48.906;8.808;2022-08-19T02:50:20;19.10;99.90
38726;DHT22;24474;48.906;8.808;2022-08-19T02:52:47;19.20;99.90
38726;DHT22;24474;48.906;8.808;2022-08-19T02:55:12;19.20;99.90
38726;DHT22;24474;48.906;8.808;2022-08-19T02:57:38;19.20;99.90
38726;DHT22;24474;48.906;8.808;2022-08-19T03:00:06;19.10;99.90
38726;DHT22;24474;48.906;8.808;2022-08-19T03:02:33;19.10;99.90
38726;DHT22;24474;48.906;8.808;2022-08-19T03:05:03;19.20;99.90
38726;DHT22;24474;48.906;8.808;2022-08-19T03:07:29;19.10;99.90
38726;DHT22;24474;48.906;8.808;2022-08-19T03:09:57;19.10;99.90
38726;DHT22;24474;48.906;8.808;2022-08-19T03:12:22;19.10;99.90
38726;DHT22;24474;48.906;8.808;2022-08-19T03:14:49;19.00;99.90
38726;DHT22;24474;48.906;8.808;2022-08-19T03:17:15;19.10;99.90
38726;DHT22;24474;48.906;8.808;2022-08-19T03:19:40;19.00;99.90
38726;DHT22;24474;48.906;8.808;2022-08-19T03:22:06;19.00;99.90
38726;DHT22;24474;48.906;8.808;2022-08-19T03:24:35;19.00;99.90
38726;DHT22;24474;48.906;8.808;2022-08-19T03:27:00;19.00;99.90
38726;DHT22;24474;48.906;8.808;2022-08-19T03:29:28;19.00;99.90
38726;DHT22;24474;48.906;8.808;2022-08-19T03:31:55;19.00;99.90
38726;DHT22;24474;48.906;8.808;2022-08-19T03:34:25;19.00;99.90
38726;DHT22;24474;48.906;8.808;2022-08-19T03:36:53;19.00;99.90
38726;DHT22;24474;48.906;8.808;2022-08-19T03:39:21;19.00;99.90
38726;DHT22;24474;48.906;8.808;2022-08-19T03:41:49;19.00;99.90
38726;DHT22;24474;48.906;8.808;2022-08-19T03:44:20;19.00;99.90
38726;DHT22;24474;48.906;8.808;2022-08-19T03:46:53;19.00;99.90
38726;DHT22;24474;48.906;8.808;2022-08-19T03:49:21;19.00;99.90
38726;DHT22;24474;48.906;8.808;2022-08-19T03:51:48;18.90;99.90
38726;DHT22;24474;48.906;8.808;2022-08-19T03:54:19;18.90;99.90
38726;DHT22;24474;48.906;8.808;2022-08-19T03:56:48;19.00;99.90
38726;DHT22;24474;48.906;8.808;2022-08-19T03:59:21;19.00;99.90
38726;DHT22;24474;48.906;8.808;2022-08-19T04:01:56;19.00;99.90
38726;DHT22;24474;48.906;8.808;2022-08-19T04:04:23;18.90;99.90
38726;DHT22;24474;48.906;8.808;2022-08-19T04:06:49;18.90;99.90
38726;DHT22;24474;48.906;8.808;2022-08-19T04:09:19;19.00;99.90
38726;DHT22;24474;48.906;8.808;2022-08-19T04:11:52;19.00;99.90
38726;DHT22;24474;48.906;8.808;2022-08-19T04:14:29;19.00;99.90
38726;DHT22;24474;48.906;8.808;2022-08-19T04:17:00;18.90;99.90
38726;DHT22;24474;48.906;8.808;2022-08-19T04:19:28;19.00;99.90
38726;DHT22;24474;48.906;8.808;2022-08-19T04:21:54;18.90;99.90
38726;DHT22;24474;48.906;8.808;2022-08-19T04:24:22;18.90;99.90
38726;DHT22;24474;48.906;8.808;2022-08-19T04:26:50;18.90;99.90
38726;DHT22;24474;48.906;8.808;2022-08-19T04:29:19;18.90;99.90
38726;DHT22;24474;48.906;8.808;2022-08-19T04:31:48;18.90;99.90
38726;DHT22;24474;48.906;8.808;2022-08-19T04:34:16;18.90;99.90
38726;DHT22;24474;48.906;8.808;2022-08-19T04:36:44;19.00;99.90
38726;DHT22;24474;48.906;8.808;2022-08-19T04:39:22;19.00;99.90
38726;DHT22;24474;48.906;8.808;2022-08-19T04:41:50;18.90;99.90
38726;DHT22;24474;48.906;8.808;2022-08-19T04:44:35;19.00;99.90
38726;DHT22;24474;48.906;8.808;2022-08-19T04:47:02;19.00;99.90
38726;DHT22;24474;48.906;8.808;2022-08-19T04:49:30;19.00;99.90
38726;DHT22;24474;48.906;8.808;2022-08-19T04:51:56;19.00;99.90
38726;DHT22;24474;48.906;8.808;2022-08-19T04:54:25;19.00;99.90
38726;DHT22;24474;48.906;8.808;2022-08-19T04:56:52;18.90;99.90
38726;DHT22;24474;48.906;8.808;2022-08-19T04:59:20;18.90;99.90
38726;DHT22;24474;48.906;8.808;2022-08-19T05:01:48;18.90;99.90
38726;DHT22;24474;48.906;8.808;2022-08-19T05:04:16;18.90;99.90
38726;DHT22;24474;48.906;8.808;2022-08-19T05:06:42;18.90;99.90
38726;DHT22;24474;48.906;8.808;2022-08-19T05:09:08;18.90;99.90
38726;DHT22;24474;48.906;8.808;2022-08-19T05:11:36;19.00;99.90
38726;DHT22;24474;48.906;8.808;2022-08-19T05:14:05;19.00;99.90
38726;DHT22;24474;48.906;8.808;2022-08-19T05:16:31;19.00;99.90
38726;DHT22;24474;48.906;8.808;2022-08-19T05:18:58;18.90;99.90
38726;DHT22;24474;48.906;8.808;2022-08-19T05:21:44;19.00;99.90
38726;DHT22;24474;48.906;8.808;2022-08-19T05:24:30;19.00;99.90
38726;DHT22;24474;48.906;8.808;2022-08-19T05:26:58;19.00;99.90
38726;DHT22;24474;48.906;8.808;2022-08-19T05:29:28;19.00;99.90
38726;DHT22;24474;48.906;8.808;2022-08-19T05:31:55;19.00;99.90
38726;DHT22;24474;48.906;8.808;2022-08-19T05:34:23;19.10;99.90
38726;DHT22;24474;48.906;8.808;2022-08-19T05:36:54;19.10;99.90
38726;DHT22;24474;48.906;8.808;2022-08-19T05:39:26;19.10;99.90
38726;DHT22;24474;48.906;8.808;2022-08-19T05:41:56;19.00;99.90
38726;DHT22;24474;48.906;8.808;2022-08-19T05:44:27;19.00;99.90
38726;DHT22;24474;48.906;8.808;2022-08-19T05:46:57;19.00;99.90
38726;DHT22;24474;48.906;8.808;2022-08-19T05:49:23;19.00;99.90
38726;DHT22;24474;48.906;8.808;2022-08-19T05:51:51;19.10;99.90
38726;DHT22;24474;48.906;8.808;2022-08-19T05:54:18;19.10;99.90
38726;DHT22;24474;48.906;8.808;2022-08-19T05:56:45;19.10;99.90
38726;DHT22;24474;48.906;8.808;2022-08-19T05:59:13;19.10;99.90
38726;DHT22;24474;48.906;8.808;2022-08-19T06:01:42;19.10;99.90
38726;DHT22;24474;48.906;8.808;2022-08-19T06:04:09;19.10;99.90
38726;DHT22;24474;48.906;8.808;2022-08-19T06:06:37;19.10;99.90
38726;DHT22;24474;48.906;8.808;2022-08-19T06:09:08;19.20;99.90
38726;DHT22;24474;48.906;8.808;2022-08-19T06:11:48;19.20;99.90
38726;DHT22;24474;48.906;8.808;2022-08-19T06:14:32;19.20;99.90
38726;DHT22;24474;48.906;8.808;2022-08-19T06:17:01;19.30;99.90
38726;DHT22;24474;48.906;8.808;2022-08-19T06:19:29;19.30;99.90
38726;DHT22;24474;48.906;8.808;2022-08-19T06:21:57;19.30;99.90
38726;DHT22;24474;48.906;8.808;2022-08-19T06:24:26;19.40;99.90
38726;DHT22;24474;48.906;8.808;2022-08-19T06:26:55;19.30;99.90
38726;DHT22;24474;48.906;8.808;2022-08-19T06:29:24;19.40;99.90
38726;DHT22;24474;48.906;8.808;2022-08-19T06:31:53;19.40;99.90
38726;DHT22;24474;48.906;8.808;2022-08-19T06:34:23;19.40;99.90
38726;DHT22;24474;48.906;8.808;2022-08-19T06:36:51;19.40;99.90
38726;DHT22;24474;48.906;8.808;2022-08-19T06:39:23;19.40;99.90
38726;DHT22;24474;48.906;8.808;2022-08-19T06:41:53;19.40;99.90
38726;DHT22;24474;48.906;8.808;2022-08-19T06:44:21;19.40;99.90
38726;DHT22;24474;48.906;8.808;2022-08-19T06:46:49;19.40;99.90
38726;DHT22;24474;48.906;8.808;2022-08-19T06:49:16;19.40;99.90
38726;DHT22;24474;48.906;8.808;2022-08-19T06:51:45;19.40;99.90
38726;DHT22;24474;48.906;8.808;2022-08-19T06:54:13;19.40;99.90
38726;DHT22;24474;48.906;8.808;2022-08-19T06:56:39;19.50;99.90
38726;DHT22;24474;48.906;8.808;2022-08-19T06:59:20;19.50;99.90
38726;DHT22;24474;48.906;8.808;2022-08-19T07:01:51;19.60;99.90
38726;DHT22;24474;48.906;8.808;2022-08-19T07:04:19;19.60;99.90
38726;DHT22;24474;48.906;8.808;2022-08-19T07:06:46;19.60;99.90
38726;DHT22;24474;48.906;8.808;2022-08-19T07:09:15;19.60;99.90
38726;DHT22;24474;48.906;8.808;2022-08-19T07:11:48;19.60;99.90
38726;DHT22;24474;48.906;8.808;2022-08-19T07:14:16;19.60;99.90
38726;DHT22;24474;48.906;8.808;2022-08-19T07:16:43;19.60;99.90
38726;DHT22;24474;48.906;8.808;2022-08-19T07:19:11;19.60;99.90
38726;DHT22;24474;48.906;8.808;2022-08-19T07:21:37;19.60;99.90
38726;DHT22;24474;48.906;8.808;2022-08-19T07:24:04;19.60;99.90
38726;DHT22;24474;48.906;8.808;2022-08-19T07:26:33;19.70;99.90
38726;DHT22;24474;48.906;8.808;2022-08-19T07:29:05;19.70;99.90
38726;DHT22;24474;48.906;8.808;2022-08-19T07:31:32;19.70;99.90
38726;DHT22;24474;48.906;8.808;2022-08-19T07:34:04;19.80;99.90
38726;DHT22;24474;48.906;8.808;2022-08-19T07:36:39;19.90;99.90
38726;DHT22;24474;48.906;8.808;2022-08-19T07:39:14;19.90;99.90
38726;DHT22;24474;48.906;8.808;2022-08-19T07:41:42;19.90;99.90
38726;DHT22;24474;48.906;8.808;2022-08-19T07:44:11;19.90;99.90
38726;DHT22;24474;48.906;8.808;2022-08-19T07:46:42;19.90;99.90
38726;DHT22;24474;48.906;8.808;2022-08-19T07:49:12;20.00;99.90
38726;DHT22;24474;48.906;8.808;2022-08-19T07:51:44;20.00;99.90
38726;DHT22;24474;48.906;8.808;2022-08-19T07:54:11;20.00;99.90
38726;DHT22;24474;48.906;8.808;2022-08-19T07:56:37;20.10;99.90
38726;DHT22;24474;48.906;8.808;2022-08-19T07:59:04;20.10;99.90
38726;DHT22;24474;48.906;8.808;2022-08-19T08:01:30;20.20;99.90
38726;DHT22;24474;48.906;8.808;2022-08-19T08:03:57;20.30;99.90
38726;DHT22;24474;48.906;8.808;2022-08-19T08:06:43;20.30;99.90
38726;DHT22;24474;48.906;8.808;2022-08-19T08:09:31;20.40;99.90
38726;DHT22;24474;48.906;8.808;2022-08-19T08:12:01;20.50;99.90
38726;DHT22;24474;48.906;8.808;2022-08-19T08:14:32;20.60;99.90
38726;DHT22;24474;48.906;8.808;2022-08-19T08:16:58;20.60;99.90
38726;DHT22;24474;48.906;8.808;2022-08-19T08:19:26;20.70;99.90
38726;DHT22;24474;48.906;8.808;2022-08-19T08:21:56;20.70;99.90
38726;DHT22;24474;48.906;8.808;2022-08-19T08:24:23;20.70;99.90
38726;DHT22;24474;48.906;8.808;2022-08-19T08:26:50;20.70;99.90
38726;DHT22;24474;48.906;8.808;2022-08-19T08:29:17;20.70;99.90
38726;DHT22;24474;48.906;8.808;2022-08-19T08:31:45;20.70;99.90
38726;DHT22;24474;48.906;8.808;2022-08-19T08:34:12;20.80;99.90
38726;DHT22;24474;48.906;8.808;2022-08-19T08:36:41;20.80;99.90
38726;DHT22;24474;48.906;8.808;2022-08-19T08:39:09;20.90;99.90
38726;DHT22;24474;48.906;8.808;2022-08-19T08:44:38;20.90;99.90
38726;DHT22;24474;48.906;8.808;2022-08-19T08:47:12;21.00;99.90
38726;DHT22;24474;48.906;8.808;2022-08-19T08:49:59;20.90;99.90
38726;DHT22;24474;48.906;8.808;2022-08-19T08:52:30;21.00;99.90
38726;DHT22;24474;48.906;8.808;2022-08-19T08:55:07;21.00;99.90
38726;DHT22;24474;48.906;8.808;2022-08-19T08:58:01;21.00;99.90
38726;DHT22;24474;48.906;8.808;2022-08-19T09:00:34;21.10;99.90
38726;DHT22;24474;48.906;8.808;2022-08-19T09:03:03;21.20;99.90
38726;DHT22;24474;48.906;8.808;2022-08-19T09:10:56;21.30;99.90
38726;DHT22;24474;48.906;8.808;2022-08-19T09:16:19;21.30;99.90
38726;DHT22;24474;48.906;8.808;2022-08-19T09:18:51;21.20;99.90
38726;DHT22;24474;48.906;8.808;2022-08-19T09:21:26;21.20;99.90
38726;DHT22;24474;48.906;8.808;2022-08-19T09:23:53;21.30;99.90
38726;DHT22;24474;48.906;8.808;2022-08-19T09:26:22;21.30;99.90
38726;DHT22;24474;48.906;8.808;2022-08-19T09:28:51;21.40;99.90
38726;DHT22;24474;48.906;8.808;2022-08-19T09:31:25;21.40;99.90
38726;DHT22;24474;48.906;8.808;2022-08-19T09:33:52;21.50;99.90
38726;DHT22;24474;48.906;8.808;2022-08-19T09:36:20;21.50;99.90
38726;DHT22;24474;48.906;8.808;2022-08-19T09:38:48;21.50;99.90
38726;DHT22;24474;48.906;8.808;2022-08-19T09:41:18;21.60;99.90
38726;DHT22;24474;48.906;8.808;2022-08-19T09:43:49;21.60;99.90
38726;DHT22;24474;48.906;8.808;2022-08-19T09:46:19;21.70;99.90
38726;DHT22;24474;48.906;8.808;2022-08-19T09:48:50;21.70;99.90
38726;DHT22;24474;48.906;8.808;2022-08-19T09:51:21;21.80;99.90
38726;DHT22;24474;48.906;8.808;2022-08-19T09:53:48;21.80;99.90
38726;DHT22;24474;48.906;8.808;2022-08-19T09:56:19;21.70;99.90
38726;DHT22;24474;48.906;8.808;2022-08-19T09:58:46;21.80;99.90
38726;DHT22;24474;48.906;8.808;2022-08-19T10:01:24;21.80;99.90
38726;DHT22;24474;48.906;8.808;2022-08-19T10:03:53;21.80;99.90
38726;DHT22;24474;48.906;8.808;2022-08-19T10:06:22;21.80;99.90
38726;DHT22;24474;48.906;8.808;2022-08-19T10:08:49;21.80;99.90
38726;DHT22;24474;48.906;8.808;2022-08-19T10:11:18;21.80;99.90
38726;DHT22;24474;48.906;8.808;2022-08-19T10:13:45;21.80;99.90
38726;DHT22;24474;48.906;8.808;2022-08-19T10:16:19;21.90;99.90
38726;DHT22;24474;48.906;8.808;2022-08-19T10:18:50;21.90;99.90
38726;DHT22;24474;48.906;8.808;2022-08-19T10:21:22;22.00;99.90
38726;DHT22;24474;48.906;8.808;2022-08-19T10:23:51;22.10;99.90
38726;DHT22;24474;48.906;8.808;2022-08-19T10:26:22;22.20;99.90
38726;DHT22;24474;48.906;8.808;2022-08-19T10:28:49;22.40;99.90
38726;DHT22;24474;48.906;8.808;2022-08-19T10:31:28;22.50;99.90
38726;DHT22;24474;48.906;8.808;2022-08-19T10:33:55;22.50;99.90
38726;DHT22;24474;48.906;8.808;2022-08-19T10:36:29;22.60;99.90
38726;DHT22;24474;48.906;8.808;2022-08-19T10:38:56;22.60;99.90
38726;DHT22;24474;48.906;8.808;2022-08-19T10:41:28;22.70;99.90
38726;DHT22;24474;48.906;8.808;2022-08-19T10:44:04;22.80;99.90
38726;DHT22;24474;48.906;8.808;2022-08-19T10:46:32;23.00;99.90
38726;DHT22;24474;48.906;8.808;2022-08-19T10:48:59;23.00;99.90
38726;DHT22;24474;48.906;8.808;2022-08-19T10:51:29;23.10;99.90
38726;DHT22;24474;48.906;8.808;2022-08-19T10:54:13;23.10;99.90
38726;DHT22;24474;48.906;8.808;2022-08-19T10:56:40;23.10;99.90
38726;DHT22;24474;48.906;8.808;2022-08-19T10:59:27;23.10;99.90
38726;DHT22;24474;48.906;8.808;2022-08-19T11:02:04;23.00;99.90
38726;DHT22;24474;48.906;8.808;2022-08-19T11:04:32;23.10;99.90
38726;DHT22;24474;48.906;8.808;2022-08-19T11:06:58;23.10;99.90
38726;DHT22;24474;48.906;8.808;2022-08-19T11:09:27;23.20;99.90
38726;DHT22;24474;48.906;8.808;2022-08-19T11:11:53;23.20;99.90
38726;DHT22;24474;48.906;8.808;2022-08-19T11:14:23;23.30;99.90
38726;DHT22;24474;48.906;8.808;2022-08-19T11:16:51;23.40;99.90
38726;DHT22;24474;48.906;8.808;2022-08-19T11:19:23;23.70;99.60
38726;DHT22;24474;48.906;8.808;2022-08-19T11:21:52;23.80;98.90
38726;DHT22;24474;48.906;8.808;2022-08-19T11:24:24;23.90;98.50
38726;DHT22;24474;48.906;8.808;2022-08-19T11:26:52;23.90;99.30
38726;DHT22;24474;48.906;8.808;2022-08-19T11:29:21;24.00;98.60
38726;DHT22;24474;48.906;8.808;2022-08-19T11:31:49;24.10;98.70
38726;DHT22;24474;48.906;8.808;2022-08-19T11:34:20;24.20;98.30
38726;DHT22;24474;48.906;8.808;2022-08-19T11:36:49;24.20;98.10
38726;DHT22;24474;48.906;8.808;2022-08-19T11:39:20;24.10;97.90
38726;DHT22;24474;48.906;8.808;2022-08-19T11:41:46;24.20;97.60
38726;DHT22;24474;48.906;8.808;2022-08-19T11:44:12;24.30;97.00
38726;DHT22;24474;48.906;8.808;2022-08-19T11:46:42;24.20;96.40
38726;DHT22;24474;48.906;8.808;2022-08-19T11:49:13;24.30;97.50
38726;DHT22;24474;48.906;8.808;2022-08-19T11:51:41;24.30;97.30
38726;DHT22;24474;48.906;8.808;2022-08-19T11:54:09;24.40;96.70
38726;DHT22;24474;48.906;8.808;2022-08-19T11:56:37;24.30;97.00
38726;DHT22;24474;48.906;8.808;2022-08-19T11:59:02;24.40;96.60
38726;DHT22;24474;48.906;8.808;2022-08-19T12:01:28;24.40;96.20
38726;DHT22;24474;48.906;8.808;2022-08-19T12:03:56;24.40;96.40
38726;DHT22;24474;48.906;8.808;2022-08-19T12:06:24;24.50;96.10
38726;DHT22;24474;48.906;8.808;2022-08-19T12:08:56;24.60;96.30
38726;DHT22;24474;48.906;8.808;2022-08-19T12:11:25;24.70;96.00
38726;DHT22;24474;48.906;8.808;2022-08-19T12:13:52;24.80;96.70
38726;DHT22;24474;48.906;8.808;2022-08-19T12:16:21;24.90;96.60
38726;DHT22;24474;48.906;8.808;2022-08-19T12:18:48;24.90;97.10
38726;DHT22;24474;48.906;8.808;2022-08-19T12:21:16;25.00;95.60
38726;DHT22;24474;48.906;8.808;2022-08-19T12:23:42;24.90;95.50
38726;DHT22;24474;48.906;8.808;2022-08-19T12:26:11;24.90;95.10
38726;DHT22;24474;48.906;8.808;2022-08-19T12:28:38;24.90;94.50
38726;DHT22;24474;48.906;8.808;2022-08-19T12:31:05;25.00;94.40
38726;DHT22;24474;48.906;8.808;2022-08-19T12:33:32;24.90;94.60
38726;DHT22;24474;48.906;8.808;2022-08-19T12:36:05;25.00;94.50
38726;DHT22;24474;48.906;8.808;2022-08-19T12:38:33;25.00;94.30
38726;DHT22;24474;48.906;8.808;2022-08-19T12:41:03;25.00;94.60
38726;DHT22;24474;48.906;8.808;2022-08-19T12:43:33;25.10;94.40
38726;DHT22;24474;48.906;8.808;2022-08-19T12:46:00;25.20;94.00
38726;DHT22;24474;48.906;8.808;2022-08-19T12:48:27;25.30;93.60
38726;DHT22;24474;48.906;8.808;2022-08-19T12:51:14;25.30;93.80
38726;DHT22;24474;48.906;8.808;2022-08-19T12:53:40;25.40;93.80
38726;DHT22;24474;48.906;8.808;2022-08-19T12:56:09;25.50;93.00
38726;DHT22;24474;48.906;8.808;2022-08-19T12:58:36;25.60;93.30
38726;DHT22;24474;48.906;8.808;2022-08-19T13:01:12;25.70;92.00
38726;DHT22;24474;48.906;8.808;2022-08-19T13:03:40;25.70;91.90
38726;DHT22;24474;48.906;8.808;2022-08-19T13:06:10;25.70;91.50
38726;DHT22;24474;48.906;8.808;2022-08-19T13:08:37;25.70;91.60
38726;DHT22;24474;48.906;8.808;2022-08-19T13:11:19;25.70;92.00
38726;DHT22;24474;48.906;8.808;2022-08-19T13:13:47;25.70;92.30
38726;DHT22;24474;48.906;8.808;2022-08-19T13:16:14;25.80;92.60
38726;DHT22;24474;48.906;8.808;2022-08-19T13:18:44;25.80;92.10
38726;DHT22;24474;48.906;8.808;2022-08-19T13:21:10;25.80;92.00
38726;DHT22;24474;48.906;8.808;2022-08-19T13:23:39;25.70;91.80
38726;DHT22;24474;48.906;8.808;2022-08-19T13:26:07;25.60;92.20
38726;DHT22;24474;48.906;8.808;2022-08-19T13:28:34;25.60;92.40
38726;DHT22;24474;48.906;8.808;2022-08-19T13:31:21;25.50;92.70
38726;DHT22;24474;48.906;8.808;2022-08-19T13:34:07;25.40;93.20
38726;DHT22;24474;48.906;8.808;2022-08-19T13:36:33;25.40;93.80
38726;DHT22;24474;48.906;8.808;2022-08-19T13:38:59;25.30;93.80
38726;DHT22;24474;48.906;8.808;2022-08-19T13:41:28;25.40;93.60
38726;DHT22;24474;48.906;8.808;2022-08-19T13:43:55;25.40;93.40
38726;DHT22;24474;48.906;8.808;2022-08-19T13:46:20;25.40;93.30
38726;DHT22;24474;48.906;8.808;2022-08-19T13:48:46;25.40;93.30
38726;DHT22;24474;48.906;8.808;2022-08-19T13:51:14;25.50;93.30
38726;DHT22;24474;48.906;8.808;2022-08-19T13:53:44;25.50;93.20
38726;DHT22;24474;48.906;8.808;2022-08-19T13:56:12;25.60;93.20
38726;DHT22;24474;48.906;8.808;2022-08-19T13:58:39;25.60;93.00
38726;DHT22;24474;48.906;8.808;2022-08-19T14:01:08;25.60;93.10
38726;DHT22;24474;48.906;8.808;2022-08-19T14:03:35;25.70;93.90
38726;DHT22;24474;48.906;8.808;2022-08-19T14:06:01;25.80;92.80
38726;DHT22;24474;48.906;8.808;2022-08-19T14:08:27;25.80;92.20
38726;DHT22;24474;48.906;8.808;2022-08-19T14:10:54;25.80;92.40
38726;DHT22;24474;48.906;8.808;2022-08-19T14:13:22;25.70;93.50
38726;DHT22;24474;48.906;8.808;2022-08-19T14:15:50;25.60;92.90
38726;DHT22;24474;48.906;8.808;2022-08-19T14:18:17;25.60;93.10
38726;DHT22;24474;48.906;8.808;2022-08-19T14:20:45;25.60;92.60
38726;DHT22;24474;48.906;8.808;2022-08-19T14:23:11;25.60;92.40
38726;DHT22;24474;48.906;8.808;2022-08-19T14:25:38;25.60;92.80
38726;DHT22;24474;48.906;8.808;2022-08-19T14:28:03;25.60;92.20
38726;DHT22;24474;48.906;8.808;2022-08-19T14:30:31;25.60;92.60
38726;DHT22;24474;48.906;8.808;2022-08-19T14:32:59;25.60;92.70
38726;DHT22;24474;48.906;8.808;2022-08-19T14:35:30;25.70;92.80
38726;DHT22;24474;48.906;8.808;2022-08-19T14:37:57;25.80;92.80
38726;DHT22;24474;48.906;8.808;2022-08-19T14:40:27;25.80;93.00
38726;DHT22;24474;48.906;8.808;2022-08-19T14:42:56;25.90;93.50
38726;DHT22;24474;48.906;8.808;2022-08-19T14:45:25;25.90;92.30
38726;DHT22;24474;48.906;8.808;2022-08-19T14:47:52;25.90;92.20
38726;DHT22;24474;48.906;8.808;2022-08-19T14:50:18;25.90;92.10
38726;DHT22;24474;48.906;8.808;2022-08-19T14:52:46;25.90;91.50
38726;DHT22;24474;48.906;8.808;2022-08-19T14:55:14;25.90;91.40
38726;DHT22;24474;48.906;8.808;2022-08-19T14:57:41;26.00;92.00
38726;DHT22;24474;48.906;8.808;2022-08-19T15:00:10;26.00;90.90
38726;DHT22;24474;48.906;8.808;2022-08-19T15:02:40;26.00;90.60
38726;DHT22;24474;48.906;8.808;2022-08-19T15:05:07;26.00;90.70
38726;DHT22;24474;48.906;8.808;2022-08-19T15:07:33;26.10;89.80
38726;DHT22;24474;48.906;8.808;2022-08-19T15:09:59;26.10;90.40
38726;DHT22;24474;48.906;8.808;2022-08-19T15:12:25;26.20;90.50
38726;DHT22;24474;48.906;8.808;2022-08-19T15:14:52;26.20;89.20
38726;DHT22;24474;48.906;8.808;2022-08-19T15:17:21;26.20;87.90
38726;DHT22;24474;48.906;8.808;2022-08-19T15:19:50;26.20;87.50
38726;DHT22;24474;48.906;8.808;2022-08-19T15:22:16;26.30;87.20
38726;DHT22;24474;48.906;8.808;2022-08-19T15:24:42;26.30;85.80
38726;DHT22;24474;48.906;8.808;2022-08-19T15:27:11;26.30;85.10
38726;DHT22;24474;48.906;8.808;2022-08-19T15:29:38;26.20;85.20
38726;DHT22;24474;48.906;8.808;2022-08-19T15:32:05;26.20;87.00
38726;DHT22;24474;48.906;8.808;2022-08-19T15:34:33;26.10;86.70
38726;DHT22;24474;48.906;8.808;2022-08-19T15:37:00;26.10;86.30
38726;DHT22;24474;48.906;8.808;2022-08-19T15:39:28;26.10;85.80
38726;DHT22;24474;48.906;8.808;2022-08-19T15:41:56;26.10;85.60
38726;DHT22;24474;48.906;8.808;2022-08-19T15:44:23;26.10;85.70
38726;DHT22;24474;48.906;8.808;2022-08-19T15:46:50;26.00;85.70
38726;DHT22;24474;48.906;8.808;2022-08-19T15:49:17;26.00;85.50
38726;DHT22;24474;48.906;8.808;2022-08-19T15:51:46;26.00;86.40
38726;DHT22;24474;48.906;8.808;2022-08-19T15:54:18;26.00;88.30
38726;DHT22;24474;48.906;8.808;2022-08-19T15:56:47;25.90;88.50